PHX70 WIII-KLAX
Flight info
| Callsign | PHX70 |
|---|---|
| Flight time | N/A |
| Altitude | 33000 |
| Route | AMBOY P648 VJN M646 MIA/N0503F340 B462 CAB/N0505F330 R597 PIBEM/N0499F350 R597 VIGOR A590 BUBDO Y83 MOE A590 KAGIS/N0483F370 A590 POROT OTR11 LEPKI DCT 40N160E 42N170E 42N180E/N0485F390 40N170W 39N160W 39N150W 39N140W/N0475F410 38N130W DCT ALLBE DCT PIRAT DCT BURGL IRNMN2 |
| Aircraft | A359/H-SDE2E3GHIJ3J4J5LM1ORWXY/LB1D1 |
Departure
| Time | 2026-05-06 05:00 |
|---|---|
| Airport | Soekarno-Hatta International Airport (WIII) |
Arrival
| Time | N/A |
|---|---|
| Airport | Los Angeles International Airport (KLAX) |
| Time | Latitude | Longitude | Altitude | Speed | Heading |
|---|---|---|---|---|---|
| 2026-05-06 04:38 | -6.12087 | 106.65066 | 42 ft | 0 kts | 147° |
| 2026-05-06 04:51 | -6.12070 | 106.65052 | 42 ft | 4 kts | 135° |
| 2026-05-06 04:51 | -6.12059 | 106.65039 | 39 ft | 2 kts | 112° |
| 2026-05-06 04:51 | -6.12057 | 106.65030 | 40 ft | 2 kts | 93° |
| 2026-05-06 04:51 | -6.12058 | 106.65018 | 38 ft | 2 kts | 63° |
| 2026-05-06 04:52 | -6.12065 | 106.65008 | 39 ft | 2 kts | 40° |
| 2026-05-06 04:52 | -6.12074 | 106.65001 | 41 ft | 2 kts | 27° |
| 2026-05-06 04:52 | -6.12084 | 106.64997 | 42 ft | 2 kts | 18° |
| 2026-05-06 04:52 | -6.12090 | 106.64995 | 42 ft | 0 kts | 14° |
| 2026-05-06 04:54 | -6.12081 | 106.64997 | 42 ft | 4 kts | 15° |
| 2026-05-06 04:54 | -6.12039 | 106.65006 | 42 ft | 9 kts | 11° |
| 2026-05-06 04:54 | -6.11966 | 106.65008 | 42 ft | 12 kts | 356° |
| 2026-05-06 04:55 | -6.11884 | 106.64968 | 42 ft | 14 kts | 299° |
| 2026-05-06 04:55 | -6.11897 | 106.64868 | 42 ft | 17 kts | 248° |
| 2026-05-06 04:55 | -6.11945 | 106.64744 | 43 ft | 21 kts | 248° |
| 2026-05-06 04:55 | -6.12005 | 106.64592 | 43 ft | 25 kts | 248° |
| 2026-05-06 04:56 | -6.12075 | 106.64418 | 43 ft | 29 kts | 248° |
| 2026-05-06 04:56 | -6.12152 | 106.64219 | 44 ft | 32 kts | 247° |
| 2026-05-06 04:56 | -6.12237 | 106.64013 | 44 ft | 27 kts | 248° |
| 2026-05-06 04:56 | -6.12250 | 106.63974 | 45 ft | 5 kts | 257° |
| 2026-05-06 04:57 | -6.12248 | 106.63922 | 45 ft | 10 kts | 290° |
| 2026-05-06 04:57 | -6.12189 | 106.63884 | 45 ft | 11 kts | 353° |
| 2026-05-06 04:57 | -6.12178 | 106.63885 | 45 ft | 0 kts | 8° |
| 2026-05-06 04:57 | -6.12168 | 106.63888 | 45 ft | 3 kts | 16° |
| 2026-05-06 04:58 | -6.12129 | 106.63905 | 45 ft | 9 kts | 26° |
| 2026-05-06 04:58 | -6.12070 | 106.63955 | 44 ft | 13 kts | 54° |
| 2026-05-06 04:58 | -6.12058 | 106.63979 | 44 ft | 0 kts | 64° |
| 2026-05-06 04:59 | -6.12051 | 106.63992 | 44 ft | 5 kts | 64° |
| 2026-05-06 04:59 | -6.12032 | 106.64037 | 44 ft | 10 kts | 68° |
| 2026-05-06 05:00 | -6.11908 | 106.64332 | 41 ft | 94 kts | 66° |
| 2026-05-06 05:00 | -6.11549 | 106.65224 | 64 ft | 178 kts | 67° |
| 2026-05-06 05:00 | -6.11014 | 106.66461 | 739 ft | 199 kts | 65° |
| 2026-05-06 05:00 | -6.10428 | 106.67680 | 1579 ft | 193 kts | 56° |
| 2026-05-06 05:01 | -6.09506 | 106.68739 | 1917 ft | 212 kts | 47° |
| 2026-05-06 05:01 | -6.08404 | 106.69844 | 2194 ft | 236 kts | 46° |
| 2026-05-06 05:01 | -6.07201 | 106.71057 | 2632 ft | 251 kts | 46° |
| 2026-05-06 05:01 | -6.05968 | 106.72328 | 3236 ft | 257 kts | 47° |
| 2026-05-06 05:02 | -6.04725 | 106.73632 | 3897 ft | 259 kts | 47° |
| 2026-05-06 05:02 | -6.03467 | 106.74961 | 4489 ft | 265 kts | 47° |
| 2026-05-06 05:02 | -6.02191 | 106.76314 | 5081 ft | 268 kts | 48° |
| 2026-05-06 05:02 | -6.00923 | 106.77665 | 5741 ft | 269 kts | 48° |
| 2026-05-06 05:03 | -5.99652 | 106.79024 | 6345 ft | 272 kts | 48° |
| 2026-05-06 05:03 | -5.98352 | 106.80415 | 6942 ft | 274 kts | 48° |
| 2026-05-06 05:03 | -5.97043 | 106.81816 | 7523 ft | 276 kts | 48° |
| 2026-05-06 05:03 | -5.95846 | 106.83319 | 8098 ft | 277 kts | 58° |
| 2026-05-06 05:04 | -5.94874 | 106.84997 | 8703 ft | 278 kts | 62° |
| 2026-05-06 05:04 | -5.93938 | 106.86720 | 9298 ft | 281 kts | 62° |
| 2026-05-06 05:04 | -5.93005 | 106.88440 | 9885 ft | 283 kts | 62° |
| 2026-05-06 05:04 | -5.92040 | 106.90209 | 10216 ft | 295 kts | 62° |
| 2026-05-06 05:05 | -5.91027 | 106.92060 | 10451 ft | 309 kts | 62° |
| 2026-05-06 05:05 | -5.89970 | 106.93991 | 10688 ft | 322 kts | 62° |
| 2026-05-06 05:05 | -5.88868 | 106.96002 | 10918 ft | 333 kts | 62° |
| 2026-05-06 05:05 | -5.87608 | 106.97979 | 11226 ft | 341 kts | 53° |
| 2026-05-06 05:06 | -5.85905 | 106.99662 | 11670 ft | 346 kts | 40° |
| 2026-05-06 05:06 | -5.83958 | 107.01103 | 12108 ft | 349 kts | 37° |
| 2026-05-06 05:06 | -5.81946 | 107.02500 | 12537 ft | 353 kts | 36° |
| 2026-05-06 05:06 | -5.79897 | 107.03898 | 12978 ft | 356 kts | 36° |
| 2026-05-06 05:07 | -5.77852 | 107.05290 | 13384 ft | 359 kts | 36° |
| 2026-05-06 05:07 | -5.75832 | 107.06783 | 13776 ft | 361 kts | 38° |
| 2026-05-06 05:07 | -5.73814 | 107.08298 | 14178 ft | 363 kts | 38° |
| 2026-05-06 05:07 | -5.71801 | 107.09822 | 14575 ft | 364 kts | 38° |
| 2026-05-06 05:08 | -5.69776 | 107.11364 | 14970 ft | 366 kts | 38° |
| 2026-05-06 05:08 | -5.67744 | 107.12918 | 15363 ft | 368 kts | 38° |
| 2026-05-06 05:08 | -5.65732 | 107.14462 | 15756 ft | 369 kts | 38° |
| 2026-05-06 05:08 | -5.63677 | 107.16040 | 16150 ft | 371 kts | 38° |
| 2026-05-06 05:09 | -5.61618 | 107.17622 | 16520 ft | 373 kts | 38° |
| 2026-05-06 05:09 | -5.59553 | 107.19206 | 16911 ft | 375 kts | 38° |
| 2026-05-06 05:09 | -5.57470 | 107.20803 | 17289 ft | 377 kts | 38° |
| 2026-05-06 05:09 | -5.55376 | 107.22408 | 17677 ft | 379 kts | 38° |
| 2026-05-06 05:10 | -5.53278 | 107.24016 | 18045 ft | 381 kts | 38° |
| 2026-05-06 05:10 | -5.51162 | 107.25637 | 18371 ft | 383 kts | 38° |
| 2026-05-06 05:10 | -5.49055 | 107.27251 | 18689 ft | 385 kts | 38° |
| 2026-05-06 05:10 | -5.46917 | 107.28888 | 19008 ft | 387 kts | 38° |
| 2026-05-06 05:11 | -5.44770 | 107.30533 | 19303 ft | 389 kts | 38° |
| 2026-05-06 05:11 | -5.42610 | 107.32188 | 19594 ft | 391 kts | 38° |
| 2026-05-06 05:11 | -5.40435 | 107.33855 | 19891 ft | 393 kts | 38° |
| 2026-05-06 05:11 | -5.38251 | 107.35528 | 20185 ft | 395 kts | 38° |
| 2026-05-06 05:12 | -5.36066 | 107.37200 | 20468 ft | 397 kts | 38° |
| 2026-05-06 05:12 | -5.33861 | 107.38889 | 20774 ft | 399 kts | 38° |
| 2026-05-06 05:12 | -5.31655 | 107.40578 | 21062 ft | 401 kts | 38° |
| 2026-05-06 05:12 | -5.29431 | 107.42282 | 21364 ft | 403 kts | 38° |
| 2026-05-06 05:13 | -5.27955 | 107.43412 | 21553 ft | 404 kts | 38° |
| 2026-05-06 05:13 | -5.25716 | 107.45127 | 21844 ft | 405 kts | 38° |
| 2026-05-06 05:13 | -5.23466 | 107.46849 | 22125 ft | 407 kts | 38° |
| 2026-05-06 05:13 | -5.21205 | 107.48578 | 22398 ft | 409 kts | 38° |
| 2026-05-06 05:14 | -5.18941 | 107.50311 | 22663 ft | 411 kts | 38° |
| 2026-05-06 05:14 | -5.16647 | 107.52065 | 22937 ft | 413 kts | 38° |
| 2026-05-06 05:14 | -5.14360 | 107.53814 | 23197 ft | 415 kts | 38° |
| 2026-05-06 05:14 | -5.12066 | 107.55569 | 23454 ft | 417 kts | 38° |
| 2026-05-06 05:15 | -5.09744 | 107.57346 | 23669 ft | 419 kts | 38° |
| 2026-05-06 05:15 | -5.07430 | 107.59117 | 23901 ft | 420 kts | 38° |
| 2026-05-06 05:15 | -5.05101 | 107.60900 | 24131 ft | 421 kts | 38° |
| 2026-05-06 05:15 | -5.02782 | 107.62674 | 24362 ft | 423 kts | 38° |
| 2026-05-06 05:16 | -5.00441 | 107.64465 | 24495 ft | 427 kts | 38° |
| 2026-05-06 05:16 | -4.98067 | 107.66280 | 24598 ft | 432 kts | 38° |
| 2026-05-06 05:16 | -4.95669 | 107.68113 | 24758 ft | 434 kts | 38° |
| 2026-05-06 05:16 | -4.93265 | 107.69951 | 24947 ft | 436 kts | 38° |
| 2026-05-06 05:17 | -4.90843 | 107.71802 | 25147 ft | 438 kts | 38° |
| 2026-05-06 05:17 | -4.88412 | 107.73660 | 25347 ft | 440 kts | 38° |
| 2026-05-06 05:17 | -4.85973 | 107.75524 | 25572 ft | 441 kts | 38° |
| 2026-05-06 05:17 | -4.83536 | 107.77388 | 25788 ft | 442 kts | 38° |
| 2026-05-06 05:18 | -4.81068 | 107.79273 | 26011 ft | 444 kts | 38° |
| 2026-05-06 05:18 | -4.78604 | 107.81155 | 26210 ft | 446 kts | 38° |
| 2026-05-06 05:18 | -4.76130 | 107.83044 | 26418 ft | 448 kts | 38° |
| 2026-05-06 05:18 | -4.73657 | 107.84934 | 26641 ft | 449 kts | 38° |
| 2026-05-06 05:19 | -4.71194 | 107.86816 | 26875 ft | 450 kts | 38° |
| 2026-05-06 05:19 | -4.68703 | 107.88719 | 27100 ft | 452 kts | 38° |
| 2026-05-06 05:19 | -4.66196 | 107.90634 | 27314 ft | 453 kts | 38° |
| 2026-05-06 05:19 | -4.63680 | 107.92555 | 27555 ft | 455 kts | 38° |
| 2026-05-06 05:20 | -4.61160 | 107.94480 | 27791 ft | 457 kts | 38° |
| 2026-05-06 05:20 | -4.58618 | 107.96421 | 28033 ft | 458 kts | 38° |
| 2026-05-06 05:20 | -4.56081 | 107.98358 | 28282 ft | 460 kts | 38° |
| 2026-05-06 05:20 | -4.53526 | 108.00308 | 28516 ft | 461 kts | 38° |
| 2026-05-06 05:21 | -4.51001 | 108.02234 | 28745 ft | 463 kts | 38° |
| 2026-05-06 05:21 | -4.48406 | 108.04215 | 28997 ft | 464 kts | 38° |
| 2026-05-06 05:21 | -4.45880 | 108.06142 | 29366 ft | 463 kts | 38° |
| 2026-05-06 05:21 | -4.43388 | 108.08044 | 29712 ft | 462 kts | 38° |
| 2026-05-06 05:22 | -4.43168 | 108.08211 | 29751 ft | 462 kts | 38° |
| 2026-05-06 05:22 | -4.40625 | 108.10152 | 30091 ft | 461 kts | 38° |
| 2026-05-06 05:22 | -4.38071 | 108.12100 | 30410 ft | 461 kts | 38° |
| 2026-05-06 05:22 | -4.35528 | 108.14040 | 30741 ft | 460 kts | 38° |
| 2026-05-06 05:23 | -4.32981 | 108.15984 | 31109 ft | 459 kts | 38° |
| 2026-05-06 05:23 | -4.30436 | 108.17923 | 31486 ft | 458 kts | 38° |
| 2026-05-06 05:23 | -4.25397 | 108.21763 | 32227 ft | 457 kts | 38° |
| 2026-05-06 05:24 | -4.22868 | 108.23692 | 32611 ft | 456 kts | 38° |
| 2026-05-06 05:24 | -4.20338 | 108.25621 | 32810 ft | 456 kts | 38° |
| 2026-05-06 05:24 | -4.15296 | 108.29464 | 32839 ft | 455 kts | 38° |
| 2026-05-06 05:25 | -4.10250 | 108.33313 | 32838 ft | 455 kts | 38° |
| 2026-05-06 05:25 | -4.05214 | 108.37158 | 32842 ft | 455 kts | 38° |
| 2026-05-06 05:26 | -4.00164 | 108.41006 | 32855 ft | 455 kts | 38° |
| 2026-05-06 05:26 | -3.95136 | 108.44834 | 32857 ft | 455 kts | 38° |
| 2026-05-06 05:27 | -3.90087 | 108.48669 | 32855 ft | 455 kts | 37° |
| 2026-05-06 05:27 | -3.85037 | 108.52485 | 32857 ft | 455 kts | 37° |
| 2026-05-06 05:28 | -3.79983 | 108.56320 | 32857 ft | 455 kts | 37° |
| 2026-05-06 05:28 | -3.74946 | 108.60156 | 32856 ft | 455 kts | 38° |
| 2026-05-06 05:29 | -3.69894 | 108.64003 | 32842 ft | 455 kts | 38° |
| 2026-05-06 05:29 | -3.64889 | 108.67827 | 32836 ft | 455 kts | 38° |
| 2026-05-06 05:30 | -3.59855 | 108.71683 | 32839 ft | 455 kts | 38° |
| 2026-05-06 05:30 | -3.54826 | 108.75523 | 32842 ft | 455 kts | 38° |
| 2026-05-06 05:31 | -3.49781 | 108.79367 | 32843 ft | 455 kts | 38° |